Time;durP1;ratioP1;P1;durP2;ratioP2;P2;SDS_P1;SDS_P2;PMS_P1;PMS_P2;Temp;Humidity;BMP_temperature;BMP_pressure;BME280_temperature;BME280_humidity;BME280_pressure;Samples;Min_cycle;Max_cycle;Signal;HPM_P1;HPM_P2
2023/08/11 00:00:36;;;;;;;5.20;4.70;;;;;;;;;;5074208;28;20207;-75
2023/08/11 00:03:05;;;;;;;7.23;5.40;;;;;;;;;;5090139;28;20252;-76
2023/08/11 00:05:34;;;;;;;6.10;5.27;;;;;;;;;;5088136;28;20181;-75
2023/08/11 00:08:00;;;;;;;6.37;5.40;;;;;;;;;;5093696;28;20222;-76
2023/08/11 00:10:26;;;;;;;6.97;6.00;;;;;;;;;;5076976;28;20190;-75
2023/08/11 00:12:52;;;;;;;6.00;5.40;;;;;;;;;;5093776;28;20183;-75
2023/08/11 00:15:18;;;;;;;6.63;5.37;;;;;;;;;;5094697;28;20174;-76
2023/08/11 00:17:44;;;;;;;5.80;5.20;;;;;;;;;;5076855;28;20182;-76
2023/08/11 00:20:10;;;;;;;7.97;5.77;;;;;;;;;;5093442;28;20253;-76
2023/08/11 00:22:37;;;;;;;7.10;6.10;;;;;;;;;;5093666;28;20219;-75
2023/08/11 00:25:04;;;;;;;6.37;5.17;;;;;;;;;;5093288;28;20288;-75
2023/08/11 00:27:30;;;;;;;6.40;5.80;;;;;;;;;;5093196;28;20185;-75
2023/08/11 00:29:58;;;;;;;6.30;5.70;;;;;;;;;;5092087;28;20229;-75
2023/08/11 00:32:24;;;;;;;6.83;6.13;;;;;;;;;;5105548;28;20175;-76
2023/08/11 00:34:51;;;;;;;7.90;6.43;;;;;;;;;;5081868;28;20194;-76
2023/08/11 00:37:17;;;;;;;6.33;5.60;;;;;;;;;;5076464;28;20232;-76
2023/08/11 00:39:43;;;;;;;6.40;5.80;;;;;;;;;;5076965;28;20186;-76
2023/08/11 00:42:09;;;;;;;7.23;6.47;;;;;;;;;;5073043;28;20239;-81
2023/08/11 00:44:35;;;;;;;6.97;5.90;;;;;;;;;;5081568;28;20179;-80
2023/08/11 00:47:01;;;;;;;7.30;5.83;;;;;;;;;;5059007;28;20178;-80
2023/08/11 00:49:28;;;;;;;7.03;5.90;;;;;;;;;;5067119;28;20213;-80
2023/08/11 00:51:54;;;;;;;7.53;6.10;;;;;;;;;;5093155;28;20208;-80
2023/08/11 00:54:21;;;;;;;6.93;6.03;;;;;;;;;;5094034;28;20193;-80
2023/08/11 00:56:48;;;;;;;7.17;6.50;;;;;;;;;;5093073;28;20181;-80
2023/08/11 00:59:19;;;;;;;7.37;6.67;;;;;;;;;;5092628;28;20259;-80
2023/08/11 01:01:45;;;;;;;8.37;6.17;;;;;;;;;;5092219;28;20198;-80
2023/08/11 01:04:12;;;;;;;6.63;6.03;;;;;;;;;;5075206;28;20185;-76
2023/08/11 01:06:47;;;;;;;7.67;6.97;;;;;;;;;;5073094;28;20171;-75
2023/08/11 01:09:16;;;;;;;6.97;6.37;;;;;;;;;;5089031;28;20186;-75
2023/08/11 01:11:51;;;;;;;10.47;8.27;;;;;;;;;;5093460;28;20260;-73
2023/08/11 01:14:25;;;;;;;8.90;8.00;;;;;;;;;;5078582;28;20178;-75
2023/08/11 01:16:52;;;;;;;8.27;7.47;;;;;;;;;;5072990;28;20178;-75
2023/08/11 01:19:25;;;;;;;9.87;7.60;;;;;;;;;;5091368;28;20241;-75
2023/08/11 01:21:52;;;;;;;9.17;8.23;;;;;;;;;;5078712;28;20203;-74
2023/08/11 01:24:18;;;;;;;8.10;6.80;;;;;;;;;;5086520;28;20183;-73
2023/08/11 01:26:44;;;;;;;7.63;6.97;;;;;;;;;;5062380;28;20180;-73
2023/08/11 01:29:10;;;;;;;8.57;7.67;;;;;;;;;;5100823;28;20171;-73
2023/08/11 01:31:36;;;;;;;9.60;7.63;;;;;;;;;;5057734;28;20206;-73
2023/08/11 01:34:03;;;;;;;8.47;7.40;;;;;;;;;;5074714;28;20218;-73
2023/08/11 01:36:29;;;;;;;8.97;7.63;;;;;;;;;;5076093;28;20178;-73
2023/08/11 01:38:55;;;;;;;8.57;6.57;;;;;;;;;;5075979;28;20178;-79
2023/08/11 01:41:21;;;;;;;7.73;6.57;;;;;;;;;;5092664;28;20210;-80
2023/08/11 01:43:48;;;;;;;7.10;6.17;;;;;;;;;;5076223;28;20183;-80
2023/08/11 01:46:14;;;;;;;8.10;6.00;;;;;;;;;;5076431;28;20223;-80
2023/08/11 01:48:40;;;;;;;6.87;6.27;;;;;;;;;;5077570;28;20179;-75
2023/08/11 01:51:07;;;;;;;7.03;6.30;;;;;;;;;;5089762;28;20215;-75
2023/08/11 01:53:33;;;;;;;6.83;5.93;;;;;;;;;;5076235;28;20178;-75
2023/08/11 01:55:59;;;;;;;7.80;7.03;;;;;;;;;;5059267;28;20183;-75
2023/08/11 01:58:26;;;;;;;6.73;6.13;;;;;;;;;;5075901;28;20195;-75
2023/08/11 02:00:52;;;;;;;7.37;6.67;;;;;;;;;;5077103;28;20199;-75
2023/08/11 02:03:18;;;;;;;7.97;7.07;;;;;;;;;;5059315;28;20186;-75
2023/08/11 02:05:44;;;;;;;7.50;6.80;;;;;;;;;;5076002;28;20241;-75
2023/08/11 02:08:11;;;;;;;7.23;6.50;;;;;;;;;;5075390;28;20231;-75
2023/08/11 02:10:37;;;;;;;7.80;7.10;;;;;;;;;;5059378;28;20245;-75
2023/08/11 02:13:03;;;;;;;8.30;6.70;;;;;;;;;;5075708;28;20175;-75
2023/08/11 02:15:29;;;;;;;12.73;7.20;;;;;;;;;;5058908;28;20194;-75
2023/08/11 02:17:55;;;;;;;8.00;6.80;;;;;;;;;;5075744;28;20177;-75
2023/08/11 02:20:21;;;;;;;8.07;6.80;;;;;;;;;;5076433;28;20256;-75
2023/08/11 02:22:47;;;;;;;9.87;7.30;;;;;;;;;;5058801;28;20270;-75
2023/08/11 02:25:14;;;;;;;9.77;7.93;;;;;;;;;;5075626;28;20186;-73
2023/08/11 02:27:41;;;;;;;12.63;7.90;;;;;;;;;;5075733;28;20282;-74
2023/08/11 02:30:10;;;;;;;8.17;7.17;;;;;;;;;;5075415;28;20175;-73
2023/08/11 02:32:37;;;;;;;9.13;7.80;;;;;;;;;;5075508;28;20187;-73
2023/08/11 02:35:04;;;;;;;10.43;7.93;;;;;;;;;;5075531;28;20176;-73
2023/08/11 02:37:30;;;;;;;10.03;8.43;;;;;;;;;;5059155;28;20190;-73
2023/08/11 02:39:56;;;;;;;9.03;7.80;;;;;;;;;;5058397;28;20187;-73
2023/08/11 02:42:24;;;;;;;8.37;7.47;;;;;;;;;;5076298;28;20175;-73
2023/08/11 02:44:50;;;;;;;10.10;7.90;;;;;;;;;;5075981;28;20171;-73
2023/08/11 02:47:16;;;;;;;9.10;7.07;;;;;;;;;;5074923;28;20175;-73
2023/08/11 02:49:42;;;;;;;9.33;6.97;;;;;;;;;;5074736;28;20175;-74
2023/08/11 02:52:09;;;;;;;7.83;6.83;;;;;;;;;;5058090;28;20185;-73
2023/08/11 02:54:35;;;;;;;7.50;6.90;;;;;;;;;;5074707;28;20172;-73
2023/08/11 02:57:01;;;;;;;7.67;6.87;;;;;;;;;;5058271;28;20182;-73
2023/08/11 02:59:27;;;;;;;10.10;7.57;;;;;;;;;;5074398;28;20200;-73
2023/08/11 03:01:53;;;;;;;9.27;7.67;;;;;;;;;;5074396;28;20211;-75
2023/08/11 03:04:19;;;;;;;8.67;7.53;;;;;;;;;;5074503;28;20229;-75
2023/08/11 03:06:47;;;;;;;8.47;7.43;;;;;;;;;;5074612;28;20213;-75
2023/08/11 03:09:13;;;;;;;8.10;6.90;;;;;;;;;;5058008;28;20190;-75
2023/08/11 03:11:40;;;;;;;8.00;7.20;;;;;;;;;;5073006;28;20182;-75
2023/08/11 03:14:06;;;;;;;8.13;7.20;;;;;;;;;;5093298;28;20273;-75
2023/08/11 03:16:32;;;;;;;8.97;6.87;;;;;;;;;;5095488;28;20182;-75
2023/08/11 03:18:58;;;;;;;7.47;6.70;;;;;;;;;;5076411;28;20186;-73
2023/08/11 03:21:24;;;;;;;8.43;7.00;;;;;;;;;;5077969;28;20220;-73
2023/08/11 03:23:50;;;;;;;8.23;7.30;;;;;;;;;;5094119;28;20175;-73
2023/08/11 03:26:16;;;;;;;8.10;7.17;;;;;;;;;;5077573;28;20175;-74
2023/08/11 03:28:42;;;;;;;7.77;6.97;;;;;;;;;;5077159;28;20182;-73
2023/08/11 03:31:08;;;;;;;10.37;6.77;;;;;;;;;;5093933;28;20174;-73
2023/08/11 03:33:34;;;;;;;7.40;6.77;;;;;;;;;;5094950;28;20210;-74
2023/08/11 03:36:00;;;;;;;8.10;6.80;;;;;;;;;;5077277;28;20194;-73
2023/08/11 03:38:26;;;;;;;7.97;7.17;;;;;;;;;;5094130;28;20174;-73
2023/08/11 03:40:53;;;;;;;8.27;6.80;;;;;;;;;;5077378;28;20217;-73
2023/08/11 03:43:19;;;;;;;7.27;6.60;;;;;;;;;;5094183;28;20175;-74
2023/08/11 03:45:45;;;;;;;8.00;6.80;;;;;;;;;;5077526;28;20255;-73
2023/08/11 03:48:11;;;;;;;12.63;7.63;;;;;;;;;;5077146;28;20181;-73
2023/08/11 03:50:37;;;;;;;8.00;7.07;;;;;;;;;;5073795;28;20179;-74
2023/08/11 03:53:03;;;;;;;9.87;7.03;;;;;;;;;;5087868;22;20242;-88
2023/08/11 03:55:29;;;;;;;9.30;6.73;;;;;;;;;;5073731;28;20189;-90
2023/08/11 04:00:55;;;;;;;7.97;7.00;;;;;;;;;;5062725;28;20222;-87
2023/08/11 04:06:37;;;;;;;8.63;7.07;;;;;;;;;;5058431;28;20246;-89
2023/08/11 04:09:23;;;;;;;9.57;7.33;;;;;;;;;;5068926;28;20187;-88
2023/08/11 04:11:50;;;;;;;8.80;7.00;;;;;;;;;;5072804;28;20180;-88
2023/08/11 04:14:41;;;;;;;8.43;6.67;;;;;;;;;;5065375;28;20186;-88
2023/08/11 04:17:24;;;;;;;8.10;7.30;;;;;;;;;;5060387;28;20183;-88
2023/08/11 04:22:51;;;;;;;8.43;7.40;;;;;;;;;;5061832;28;20184;-89
2023/08/11 04:25:56;;;;;;;;;;;;;;;;;;;;;
2023/08/11 04:28:26;;;;;;;9.10;8.13;;;;;;;;;;5060234;28;20212;-89
2023/08/11 04:31:24;;;;;;;9.80;8.70;;;;;;;;;;5058237;28;20191;-90
2023/08/11 04:34:17;;;;;;;9.70;8.70;;;;;;;;;;5063959;28;20195;-88
2023/08/11 04:37:36;;;;;;;;;;;;;;;;;;;;;
2023/08/11 04:40:03;;;;;;;;;;;;;;;;;;;;;
2023/08/11 04:45:25;;;;;;;8.77;7.87;;;;;;;;;;5050381;28;20176;-89
2023/08/11 04:47:51;;;;;;;9.70;8.13;;;;;;;;;;5070303;28;20172;-91
2023/08/11 04:50:20;;;;;;;9.87;8.87;;;;;;;;;;5069651;28;20208;-89
2023/08/11 04:53:10;;;;;;;9.77;8.53;;;;;;;;;;5071312;28;20220;-90
2023/08/11 04:55:41;;;;;;;10.80;9.00;;;;;;;;;;5071977;28;20180;-90
2023/08/11 05:00:57;;;;;;;10.10;9.03;;;;;;;;;;5034882;28;20231;-90
2023/08/11 05:03:35;;;;;;;10.67;8.50;;;;;;;;;;5052625;28;20182;-89
2023/08/11 05:06:01;;;;;;;10.10;8.90;;;;;;;;;;5052607;28;20176;-89
2023/08/11 05:08:27;;;;;;;9.87;8.87;;;;;;;;;;5051999;28;20183;-90
2023/08/11 05:10:55;;;;;;;9.80;8.70;;;;;;;;;;5069098;28;20187;-92
2023/08/11 05:13:22;;;;;;;11.80;8.93;;;;;;;;;;5068846;28;20180;-92
2023/08/11 05:15:57;;;;;;;11.00;9.03;;;;;;;;;;5052286;28;20231;-91
2023/08/11 05:18:23;;;;;;;9.90;8.50;;;;;;;;;;5050352;28;20188;-90
2023/08/11 05:20:52;;;;;;;9.57;8.57;;;;;;;;;;5042920;28;20208;-89
2023/08/11 05:23:18;;;;;;;9.90;8.90;;;;;;;;;;5053002;28;20175;-91
2023/08/11 05:25:50;;;;;;;10.83;9.27;;;;;;;;;;5055962;28;20264;-89
2023/08/11 05:28:16;;;;;;;9.80;8.80;;;;;;;;;;5056521;28;20183;-92
2023/08/11 05:30:43;;;;;;;12.60;9.50;;;;;;;;;;5056244;28;20275;-91
2023/08/11 05:33:11;;;;;;;11.00;9.37;;;;;;;;;;5056184;28;20184;-90
2023/08/11 05:35:37;;;;;;;11.10;10.10;;;;;;;;;;5055642;28;20192;-88
2023/08/11 05:38:03;;;;;;;13.43;11.87;;;;;;;;;;5055882;28;20188;-88
2023/08/11 05:40:30;;;;;;;13.93;12.43;;;;;;;;;;5055080;28;20207;-88
2023/08/11 05:42:58;;;;;;;15.60;13.43;;;;;;;;;;5055933;28;20190;-87
2023/08/11 05:45:24;;;;;;;14.87;12.03;;;;;;;;;;5056164;28;20172;-87
2023/08/11 05:47:50;;;;;;;13.70;12.30;;;;;;;;;;5055341;28;20180;-87
2023/08/11 05:50:19;;;;;;;15.63;12.50;;;;;;;;;;5055523;28;20184;-88
2023/08/11 05:52:45;;;;;;;18.63;14.43;;;;;;;;;;5055140;28;20227;-88
2023/08/11 05:55:11;;;;;;;15.50;13.57;;;;;;;;;;5043502;28;20216;-88
2023/08/11 05:57:37;;;;;;;16.83;13.37;;;;;;;;;;5035573;28;20185;-89
2023/08/11 06:00:06;;;;;;;15.80;13.47;;;;;;;;;;5054849;28;20184;-89
2023/08/11 06:02:40;;;;;;;16.83;13.77;;;;;;;;;;5054814;28;20176;-88
2023/08/11 06:05:10;;;;;;;16.33;14.67;;;;;;;;;;5054321;28;20191;-89
2023/08/11 06:07:42;;;;;;;17.93;15.17;;;;;;;;;;5055110;28;20183;-90
2023/08/11 06:10:09;;;;;;;17.13;14.03;;;;;;;;;;5055398;28;20190;-88
2023/08/11 06:12:38;;;;;;;16.10;14.50;;;;;;;;;;5055345;28;20280;-89
2023/08/11 06:15:08;;;;;;;18.80;15.23;;;;;;;;;;5055229;28;20238;-89
2023/08/11 06:17:50;;;;;;;16.53;14.83;;;;;;;;;;5071849;28;20191;-89
2023/08/11 06:20:17;;;;;;;16.17;14.57;;;;;;;;;;5072135;28;20210;-90
2023/08/11 06:22:50;;;;;;;15.77;14.27;;;;;;;;;;5072001;28;20183;-89
2023/08/11 06:25:28;;;;;;;16.20;14.70;;;;;;;;;;5072179;28;20211;-90
2023/08/11 06:28:00;;;;;;;17.60;15.10;;;;;;;;;;5071807;28;20176;-91
2023/08/11 06:30:32;;;;;;;18.87;15.00;;;;;;;;;;5055388;28;20194;-90
2023/08/11 06:33:02;;;;;;;17.90;14.40;;;;;;;;;;5055636;28;20195;-90
2023/08/11 06:35:51;;;;;;;18.43;14.57;;;;;;;;;;5071322;28;20191;-90
2023/08/11 06:38:20;;;;;;;16.07;14.57;;;;;;;;;;5071515;28;20207;-89
2023/08/11 06:40:50;;;;;;;16.07;14.37;;;;;;;;;;5071356;28;20200;-89
2023/08/11 06:43:21;;;;;;;16.60;14.90;;;;;;;;;;5071868;28;20180;-89
2023/08/11 06:45:48;;;;;;;15.90;14.03;;;;;;;;;;5070976;28;20204;-90
2023/08/11 06:48:22;;;;;;;16.87;15.13;;;;;;;;;;5054632;28;20176;-90
2023/08/11 06:50:58;;;;;;;16.27;14.03;;;;;;;;;;5055397;28;20176;-90
2023/08/11 06:53:32;;;;;;;14.70;13.30;;;;;;;;;;5040629;28;20227;-91
2023/08/11 06:55:58;;;;;;;15.13;13.70;;;;;;;;;;5054569;28;20251;-91
2023/08/11 06:58:27;;;;;;;13.87;12.47;;;;;;;;;;5071727;28;20183;-91
2023/08/11 07:01:03;;;;;;;15.27;12.30;;;;;;;;;;5071519;28;20269;-90
2023/08/11 07:03:37;;;;;;;12.03;10.50;;;;;;;;;;5055133;28;20274;-91
2023/08/11 07:06:14;;;;;;;15.20;10.93;;;;;;;;;;5055051;28;20203;-90
2023/08/11 07:08:42;;;;;;;14.13;10.90;;;;;;;;;;5054765;28;20171;-92
2023/08/11 07:11:18;;;;;;;11.63;9.90;;;;;;;;;;5054740;28;20270;-90
2023/08/11 07:14:04;;;;;;;13.00;10.30;;;;;;;;;;5055041;28;20207;-89
2023/08/11 07:16:43;;;;;;;;;;;;;;;;;;;;;
2023/08/11 07:19:15;;;;;;;13.47;10.00;;;;;;;;;;5055005;28;20201;-90
2023/08/11 07:25:13;;;;;;;13.50;10.07;;;;;;;;;;5044635;28;20263;-91
2023/08/11 07:28:09;;;;;;;13.83;10.57;;;;;;;;;;5034660;28;20199;-90
2023/08/11 07:30:40;;;;;;;12.40;9.80;;;;;;;;;;5037310;28;20192;-90
2023/08/11 07:39:22;;;;;;;14.00;9.27;;;;;;;;;;5053861;28;20179;-92
2023/08/11 07:42:01;;;;;;;13.23;9.53;;;;;;;;;;5036843;28;20230;-91
2023/08/11 07:44:48;;;;;;;15.27;9.37;;;;;;;;;;5018313;28;20292;-92
2023/08/11 07:47:14;;;;;;;12.43;8.90;;;;;;;;;;5035368;28;20263;-90
2023/08/11 07:53:06;;;;;;;13.73;9.20;;;;;;;;;;5039212;28;20300;-90
2023/08/11 07:55:45;;;;;;;;;;;;;;;;;;;;;
2023/08/11 08:01:27;;;;;;;13.73;9.50;;;;;;;;;;5054579;28;20526;-90
2023/08/11 08:04:03;;;;;;;12.25;9.27;;;;;;;;;;5053092;28;20412;-91
2023/08/11 08:06:33;;;;;;;12.05;9.10;;;;;;;;;;5038446;28;20416;-92
2023/08/11 08:12:23;;;;;;;11.43;8.88;;;;;;;;;;5034620;28;20428;-90
2023/08/11 08:14:55;;;;;;;11.60;8.90;;;;;;;;;;5049693;28;20402;-90
2023/08/11 08:17:23;;;;;;;11.30;8.50;;;;;;;;;;5049429;28;20409;-89
2023/08/11 08:19:55;;;;;;;9.85;8.40;;;;;;;;;;5049080;28;20401;-91
2023/08/11 08:22:27;;;;;;;11.57;7.90;;;;;;;;;;5032718;28;20488;-90
2023/08/11 08:24:53;;;;;;;13.50;8.23;;;;;;;;;;5049203;28;20426;-91
2023/08/11 08:27:26;;;;;;;10.70;7.43;;;;;;;;;;5053217;28;20466;-91
2023/08/11 08:29:55;;;;;;;11.10;6.83;;;;;;;;;;5070270;28;20172;-92
2023/08/11 08:32:41;;;;;;;9.83;6.97;;;;;;;;;;5069496;28;20180;-90
2023/08/11 08:35:15;;;;;;;8.87;7.57;;;;;;;;;;5069448;28;20198;-91
2023/08/11 08:37:50;;;;;;;10.47;6.80;;;;;;;;;;5052967;28;20200;-91
2023/08/11 08:40:16;;;;;;;10.53;7.37;;;;;;;;;;5048589;28;20214;-90
2023/08/11 08:43:12;;;;;;;10.53;6.30;;;;;;;;;;5048675;28;20183;-90
2023/08/11 08:45:46;;;;;;;11.03;7.10;;;;;;;;;;5049496;28;20181;-92
2023/08/11 08:48:39;;;;;;;9.65;5.65;;;;;;;;;;5032758;28;20239;-90
2023/08/11 08:51:15;;;;;;;8.18;6.03;;;;;;;;;;5033002;28;20188;-92
2023/08/11 08:53:51;;;;;;;9.30;5.35;;;;;;;;;;5032577;28;20235;-90
2023/08/11 08:56:23;;;;;;;7.20;5.53;;;;;;;;;;5032901;28;20271;-90
2023/08/11 08:58:56;;;;;;;6.55;5.35;;;;;;;;;;5046956;28;20187;-90
2023/08/11 09:01:52;;;;;;;10.23;5.70;;;;;;;;;;5059223;28;20237;-93
2023/08/11 09:04:22;;;;;;;6.72;5.72;;;;;;;;;;5042153;28;20188;-91
2023/08/11 09:07:09;;;;;;;8.02;5.35;;;;;;;;;;5057796;28;20176;-91
2023/08/11 09:09:37;;;;;;;7.78;5.65;;;;;;;;;;5058270;28;20245;-89
2023/08/11 09:12:09;;;;;;;7.00;4.85;;;;;;;;;;5074893;28;20188;-91
2023/08/11 09:14:44;;;;;;;7.90;5.20;;;;;;;;;;5057177;28;20470;-90
2023/08/11 09:17:15;;;;;;;8.63;5.68;;;;;;;;;;5055316;28;20183;-89
2023/08/11 09:19:51;;;;;;;8.77;5.50;;;;;;;;;;5056197;28;20176;-90
2023/08/11 09:22:23;;;;;;;8.18;5.60;;;;;;;;;;5055458;28;20432;-89
2023/08/11 09:24:50;;;;;;;7.45;5.50;;;;;;;;;;5056130;28;20423;-90
2023/08/11 09:27:16;;;;;;;7.53;5.18;;;;;;;;;;5057306;28;20171;-89
2023/08/11 09:29:45;;;;;;;7.72;5.88;;;;;;;;;;5056260;28;20435;-88
2023/08/11 09:32:11;;;;;;;8.32;5.65;;;;;;;;;;5056605;28;20419;-89
2023/08/11 09:34:39;;;;;;;7.15;5.60;;;;;;;;;;5055587;28;20495;-89
2023/08/11 09:37:11;;;;;;;7.95;5.47;;;;;;;;;;5055496;28;20473;-90
2023/08/11 09:39:37;;;;;;;8.40;5.63;;;;;;;;;;5055968;28;20515;-89
2023/08/11 09:42:09;;;;;;;9.45;5.47;;;;;;;;;;5055570;28;20547;-90
2023/08/11 09:44:35;;;;;;;7.57;5.32;;;;;;;;;;5055636;28;20183;-91
2023/08/11 09:47:05;;;;;;;5.85;5.25;;;;;;;;;;5056253;28;20187;-89
2023/08/11 09:49:33;;;;;;;7.03;5.50;;;;;;;;;;5056368;28;20179;-89
2023/08/11 09:52:04;;;;;;;5.95;4.63;;;;;;;;;;5056155;28;20266;-89
2023/08/11 09:54:30;;;;;;;7.93;5.05;;;;;;;;;;5056075;28;20230;-89
2023/08/11 09:57:03;;;;;;;7.43;4.68;;;;;;;;;;5055816;28;20423;-89
2023/08/11 09:59:33;;;;;;;6.97;5.10;;;;;;;;;;5055675;28;20180;-89
2023/08/11 10:02:03;;;;;;;6.07;4.75;;;;;;;;;;5056431;28;20207;-90
2023/08/11 10:04:35;;;;;;;6.65;4.70;;;;;;;;;;5039509;28;20176;-91
2023/08/11 10:07:02;;;;;;;7.20;4.28;;;;;;;;;;5055912;28;20168;-88
2023/08/11 10:12:27;;;;;;;6.18;4.32;;;;;;;;;;4995668;28;20232;-91
2023/08/11 10:14:55;;;;;;;6.70;4.72;;;;;;;;;;5048539;28;20184;-89
2023/08/11 10:17:22;;;;;;;9.23;5.30;;;;;;;;;;5054555;28;20407;-89
2023/08/11 10:19:51;;;;;;;7.25;4.60;;;;;;;;;;5047794;28;20404;-90
2023/08/11 10:22:20;;;;;;;9.02;4.10;;;;;;;;;;5064237;28;20200;-88
2023/08/11 10:24:48;;;;;;;7.18;4.28;;;;;;;;;;5041037;28;20160;-90
2023/08/11 10:27:23;;;;;;;9.80;4.80;;;;;;;;;;5047875;28;20424;-89
2023/08/11 10:29:53;;;;;;;9.02;5.10;;;;;;;;;;5044843;28;20410;-88
2023/08/11 10:32:25;;;;;;;10.30;4.75;;;;;;;;;;5054087;28;20494;-89
2023/08/11 10:34:51;;;;;;;6.88;4.28;;;;;;;;;;5041039;28;20409;-90
2023/08/11 10:37:26;;;;;;;7.75;4.45;;;;;;;;;;5051642;28;20413;-89
2023/08/11 10:40:03;;;;;;;7.05;5.10;;;;;;;;;;5034501;28;20432;-90
2023/08/11 10:42:29;;;;;;;6.65;4.80;;;;;;;;;;5034408;28;20438;-89
2023/08/11 10:45:06;;;;;;;6.70;4.80;;;;;;;;;;5034427;28;20501;-89
2023/08/11 10:47:32;;;;;;;5.43;4.32;;;;;;;;;;5049287;28;20395;-89
2023/08/11 10:50:01;;;;;;;5.55;4.55;;;;;;;;;;5036864;28;21901;-88
2023/08/11 10:52:29;;;;;;;6.68;4.63;;;;;;;;;;5059660;28;20426;-88
2023/08/11 10:55:04;;;;;;;5.38;4.43;;;;;;;;;;5053201;28;20443;-88
2023/08/11 10:57:31;;;;;;;6.97;4.80;;;;;;;;;;5035319;28;20493;-87
2023/08/11 10:59:57;;;;;;;6.80;4.88;;;;;;;;;;5051309;28;20400;-89
2023/08/11 11:02:24;;;;;;;4.68;4.13;;;;;;;;;;5059658;28;20409;-87
2023/08/11 11:04:54;;;;;;;6.03;4.18;;;;;;;;;;5034734;28;20406;-87
2023/08/11 11:07:38;;;;;;;6.28;4.47;;;;;;;;;;5049282;28;20412;-89
2023/08/11 11:10:09;;;;;;;6.75;4.60;;;;;;;;;;5033808;28;20488;-90
2023/08/11 11:12:35;;;;;;;6.53;4.35;;;;;;;;;;5034749;28;20405;-89
2023/08/11 11:15:03;;;;;;;7.40;4.10;;;;;;;;;;5034854;28;20211;-89
2023/08/11 11:17:29;;;;;;;7.13;4.20;;;;;;;;;;5034556;28;20463;-89
2023/08/11 11:19:56;;;;;;;6.63;4.28;;;;;;;;;;5032493;28;20488;-90
2023/08/11 11:22:26;;;;;;;6.45;4.20;;;;;;;;;;5033587;28;20223;-89
2023/08/11 11:24:52;;;;;;;4.53;3.72;;;;;;;;;;5034845;28;20184;-91
2023/08/11 11:27:18;;;;;;;7.50;3.95;;;;;;;;;;5034319;28;20172;-89
2023/08/11 11:29:45;;;;;;;5.53;3.38;;;;;;;;;;5033110;28;20291;-91
2023/08/11 11:32:28;;;;;;;7.80;3.45;;;;;;;;;;5035183;28;20244;-91
2023/08/11 11:35:03;;;;;;;5.00;2.95;;;;;;;;;;5034954;28;20462;-92
2023/08/11 11:37:29;;;;;;;4.88;2.83;;;;;;;;;;5033595;28;20500;-89
2023/08/11 11:40:06;;;;;;;6.28;2.97;;;;;;;;;;5034498;28;20219;-89
2023/08/11 11:42:38;;;;;;;4.93;2.80;;;;;;;;;;5033713;28;20216;-90
2023/08/11 11:45:12;;;;;;;6.87;2.97;;;;;;;;;;5033801;28;20466;-89
2023/08/11 11:47:38;;;;;;;4.95;3.03;;;;;;;;;;5033883;28;20181;-88
2023/08/11 11:50:08;;;;;;;3.95;3.00;;;;;;;;;;5033693;28;20465;-90
2023/08/11 11:52:36;;;;;;;5.80;3.08;;;;;;;;;;5033954;28;20177;-89
2023/08/11 11:55:06;;;;;;;5.57;2.83;;;;;;;;;;5033757;28;20224;-90
2023/08/11 11:57:32;;;;;;;5.82;2.80;;;;;;;;;;5033549;28;20179;-90
2023/08/11 11:59:59;;;;;;;5.43;3.08;;;;;;;;;;5033402;28;20177;-90
2023/08/11 12:02:28;;;;;;;4.18;3.00;;;;;;;;;;5033521;28;20421;-88
2023/08/11 12:04:54;;;;;;;4.47;2.60;;;;;;;;;;5033690;28;20164;-89
2023/08/11 12:07:33;;;;;;;5.68;2.80;;;;;;;;;;5033521;28;20177;-90
2023/08/11 12:10:04;;;;;;;5.40;3.00;;;;;;;;;;5033723;28;20413;-88
2023/08/11 12:12:31;;;;;;;5.82;3.20;;;;;;;;;;5034226;28;20462;-86
2023/08/11 12:15:05;;;;;;;5.60;3.42;;;;;;;;;;5049017;28;20413;-87
2023/08/11 12:17:32;;;;;;;5.68;3.20;;;;;;;;;;5053550;28;20497;-89
2023/08/11 12:20:03;;;;;;;5.32;3.00;;;;;;;;;;5053339;28;20408;-89
2023/08/11 12:22:29;;;;;;;4.22;3.03;;;;;;;;;;5058488;28;20461;-89
2023/08/11 12:25:00;;;;;;;5.80;3.20;;;;;;;;;;5053194;28;20403;-88
2023/08/11 12:27:26;;;;;;;6.43;3.20;;;;;;;;;;5052825;28;20408;-89
2023/08/11 12:29:55;;;;;;;4.33;3.10;;;;;;;;;;5052462;28;20435;-90
2023/08/11 12:32:22;;;;;;;4.82;3.28;;;;;;;;;;5052318;28;20403;-89
2023/08/11 12:34:51;;;;;;;5.43;2.97;;;;;;;;;;5052681;28;20411;-89
2023/08/11 12:37:20;;;;;;;4.47;2.97;;;;;;;;;;5067175;28;20412;-90
2023/08/11 12:39:46;;;;;;;5.45;3.20;;;;;;;;;;5052629;28;20404;-90
2023/08/11 12:42:12;;;;;;;5.97;3.20;;;;;;;;;;5051349;28;20432;-90
2023/08/11 12:44:48;;;;;;;4.30;2.90;;;;;;;;;;5051222;28;20400;-90
2023/08/11 12:47:17;;;;;;;4.95;2.75;;;;;;;;;;5069132;28;20408;-90
2023/08/11 12:49:46;;;;;;;5.55;2.90;;;;;;;;;;5052089;28;20168;-89
2023/08/11 12:52:15;;;;;;;5.38;2.80;;;;;;;;;;5032717;28;20489;-90
2023/08/11 12:54:43;;;;;;;4.00;3.08;;;;;;;;;;5052357;28;20428;-90
2023/08/11 12:57:09;;;;;;;5.63;3.03;;;;;;;;;;5052628;28;20407;-89
2023/08/11 12:59:43;;;;;;;3.58;3.08;;;;;;;;;;5052211;28;20438;-91
2023/08/11 13:02:11;;;;;;;4.32;3.17;;;;;;;;;;5051642;28;20427;-90
2023/08/11 13:04:40;;;;;;;7.63;2.92;;;;;;;;;;5052654;28;20408;-91
2023/08/11 13:07:06;;;;;;;3.85;3.30;;;;;;;;;;5052844;28;20404;-91
2023/08/11 13:09:35;;;;;;;3.67;3.20;;;;;;;;;;5052947;28;20412;-91
2023/08/11 13:12:04;;;;;;;4.90;3.05;;;;;;;;;;5038340;28;20420;-91
2023/08/11 13:14:36;;;;;;;4.00;2.90;;;;;;;;;;5054926;28;20495;-89
2023/08/11 13:17:04;;;;;;;4.90;3.28;;;;;;;;;;5052727;28;20404;-89
2023/08/11 13:19:30;;;;;;;4.88;3.03;;;;;;;;;;5051322;28;20448;-90
2023/08/11 13:22:04;;;;;;;5.57;3.10;;;;;;;;;;5037583;28;20435;-89
2023/08/11 13:24:53;;;;;;;4.13;3.30;;;;;;;;;;5054382;28;20418;-89
2023/08/11 13:27:45;;;;;;;5.97;2.90;;;;;;;;;;5054884;28;20434;-90
2023/08/11 13:30:12;;;;;;;4.90;3.07;;;;;;;;;;5052249;28;20403;-88
2023/08/11 13:32:41;;;;;;;6.23;3.07;;;;;;;;;;5051797;28;20400;-88
2023/08/11 13:35:08;;;;;;;3.53;2.85;;;;;;;;;;5052059;28;20408;-89
2023/08/11 13:37:38;;;;;;;4.03;3.03;;;;;;;;;;5052238;28;20479;-89
2023/08/11 13:40:05;;;;;;;3.38;2.97;;;;;;;;;;5052644;28;20404;-90
2023/08/11 13:42:31;;;;;;;3.65;3.00;;;;;;;;;;5052954;28;20184;-89
2023/08/11 13:45:02;;;;;;;5.30;3.30;;;;;;;;;;5055032;28;20311;-89
2023/08/11 13:47:31;;;;;;;3.53;3.00;;;;;;;;;;5055350;28;20396;-88
2023/08/11 13:49:59;;;;;;;4.50;3.13;;;;;;;;;;5055108;28;20408;-89
2023/08/11 13:52:25;;;;;;;5.78;3.17;;;;;;;;;;5055937;28;20172;-90
2023/08/11 13:55:01;;;;;;;3.33;3.00;;;;;;;;;;5054921;28;20434;-89
2023/08/11 13:57:27;;;;;;;4.78;2.80;;;;;;;;;;5055735;28;20416;-89
2023/08/11 13:59:56;;;;;;;6.45;3.20;;;;;;;;;;5054483;28;20400;-88
2023/08/11 14:02:25;;;;;;;6.10;3.10;;;;;;;;;;5054639;28;20509;-90
2023/08/11 14:04:55;;;;;;;5.10;3.10;;;;;;;;;;5055241;28;20416;-92
2023/08/11 14:07:21;;;;;;;5.15;3.03;;;;;;;;;;5054815;28;20495;-87
2023/08/11 14:09:47;;;;;;;4.90;3.03;;;;;;;;;;5053123;28;20443;-88
2023/08/11 14:12:29;;;;;;;;;;;;;;;;;;;;;
2023/08/11 14:14:55;;;;;;;5.50;3.20;;;;;;;;;;5055579;28;20416;-87
2023/08/11 14:20:33;;;;;;;4.53;3.13;;;;;;;;;;5027820;28;20437;-87
2023/08/11 14:23:05;;;;;;;4.30;3.10;;;;;;;;;;5049515;28;20466;-88
2023/08/11 14:25:39;;;;;;;5.75;3.13;;;;;;;;;;5048910;28;20419;-86
2023/08/11 14:28:13;;;;;;;4.43;3.05;;;;;;;;;;5054448;28;20436;-88
2023/08/11 14:31:21;;;;;;;;;;;;;;;;;;;;;
2023/08/11 14:43:36;;;;;;;3.70;2.77;;;;;;;;;;4995081;28;20417;-90
2023/08/11 14:46:33;;;;;;;;;;;;;;;;;;;;;
2023/08/11 14:49:22;;;;;;;;;;;;;;;;;;;;;
2023/08/11 15:01:50;;;;;;;3.65;3.15;;;;;;;;;;4955406;29;20454;-89
2023/08/11 15:04:31;;;;;;;;;;;;;;;;;;;;;
2023/08/11 15:07:06;;;;;;;4.65;2.88;;;;;;;;;;5035281;28;20183;-87
2023/08/11 15:09:35;;;;;;;4.13;3.00;;;;;;;;;;5051013;28;20279;-88
2023/08/11 15:21:40;;;;;;;5.47;3.33;;;;;;;;;;4992009;28;20293;-88
2023/08/11 15:24:18;;;;;;;;;;;;;;;;;;;;;
2023/08/11 15:26:50;;;;;;;5.70;3.22;;;;;;;;;;5055375;28;20171;-88
2023/08/11 15:32:43;;;;;;;4.53;3.25;;;;;;;;;;5055211;28;20543;-90
2023/08/11 15:41:21;;;;;;;4.18;3.50;;;;;;;;;;5055073;28;20423;-88
2023/08/11 15:46:54;;;;;;;4.43;4.03;;;;;;;;;;5055367;28;20163;-90
2023/08/11 15:56:41;;;;;;;5.73;4.00;;;;;;;;;;5028533;28;20493;-88
2023/08/11 15:59:51;;;;;;;;;;;;;;;;;;;;;
2023/08/11 16:02:27;;;;;;;6.75;4.05;;;;;;;;;;4947201;29;20278;-88
2023/08/11 16:17:23;;;;;;;9.90;5.85;;;;;;;;;;5033066;28;20211;-87
2023/08/11 16:19:53;;;;;;;8.23;5.25;;;;;;;;;;5016183;28;20181;-87
2023/08/11 16:22:19;;;;;;;8.95;6.35;;;;;;;;;;5030976;28;20511;-88
2023/08/11 16:24:53;;;;;;;7.10;5.30;;;;;;;;;;5059607;28;20176;-89
2023/08/11 16:27:33;;;;;;;7.53;6.00;;;;;;;;;;5072511;28;20248;-89
2023/08/11 16:30:01;;;;;;;11.10;6.88;;;;;;;;;;5073376;28;20209;-86
2023/08/11 16:32:28;;;;;;;6.95;5.93;;;;;;;;;;5052389;28;20507;-86
2023/08/11 16:34:54;;;;;;;8.82;5.68;;;;;;;;;;5036699;28;20176;-87
2023/08/11 16:37:23;;;;;;;8.40;6.30;;;;;;;;;;5036186;28;20435;-86
2023/08/11 16:39:52;;;;;;;11.80;6.57;;;;;;;;;;5036712;28;20186;-90
2023/08/11 16:42:23;;;;;;;10.85;7.20;;;;;;;;;;5049347;28;20203;-87
2023/08/11 16:44:52;;;;;;;8.90;6.65;;;;;;;;;;5056304;28;20202;-88
2023/08/11 16:47:20;;;;;;;11.75;7.80;;;;;;;;;;5056121;28;20416;-90
2023/08/11 16:49:50;;;;;;;9.65;7.25;;;;;;;;;;5072990;28;20172;-86
2023/08/11 16:52:18;;;;;;;10.57;7.55;;;;;;;;;;5040018;28;20187;-85